sensor_id;sensor_type;location;lat;lon;timestamp;P1;durP1;ratioP1;P2;durP2;ratioP2
5904;SDS011;2978;42.012;24.880;2023-02-22T00:01:17;10.90;;;2.37;;
5904;SDS011;2978;42.012;24.880;2023-02-22T00:03:47;4.63;;;2.07;;
5904;SDS011;2978;42.012;24.880;2023-02-22T00:06:16;4.10;;;1.90;;
5904;SDS011;2978;42.012;24.880;2023-02-22T00:08:43;3.50;;;2.20;;
5904;SDS011;2978;42.012;24.880;2023-02-22T00:11:10;11.87;;;3.10;;
5904;SDS011;2978;42.012;24.880;2023-02-22T00:13:38;13.67;;;2.60;;
5904;SDS011;2978;42.012;24.880;2023-02-22T00:16:04;6.10;;;2.27;;
5904;SDS011;2978;42.012;24.880;2023-02-22T00:18:30;4.70;;;2.40;;
5904;SDS011;2978;42.012;24.880;2023-02-22T00:20:55;10.63;;;2.60;;
5904;SDS011;2978;42.012;24.880;2023-02-22T00:23:26;3.90;;;2.50;;
5904;SDS011;2978;42.012;24.880;2023-02-22T00:26:14;3.00;;;2.57;;
5904;SDS011;2978;42.012;24.880;2023-02-22T00:28:46;2.43;;;1.77;;
5904;SDS011;2978;42.012;24.880;2023-02-22T00:31:13;7.23;;;2.20;;
5904;SDS011;2978;42.012;24.880;2023-02-22T00:33:39;3.57;;;2.10;;
5904;SDS011;2978;42.012;24.880;2023-02-22T00:36:05;3.93;;;2.33;;
5904;SDS011;2978;42.012;24.880;2023-02-22T00:38:31;3.63;;;2.03;;
5904;SDS011;2978;42.012;24.880;2023-02-22T00:40:57;2.70;;;2.27;;
5904;SDS011;2978;42.012;24.880;2023-02-22T00:43:22;3.00;;;2.00;;
5904;SDS011;2978;42.012;24.880;2023-02-22T00:45:49;5.93;;;2.50;;
5904;SDS011;2978;42.012;24.880;2023-02-22T00:48:14;3.00;;;2.03;;
5904;SDS011;2978;42.012;24.880;2023-02-22T00:50:40;3.80;;;2.30;;
5904;SDS011;2978;42.012;24.880;2023-02-22T00:53:15;4.50;;;2.40;;
5904;SDS011;2978;42.012;24.880;2023-02-22T00:55:40;5.10;;;1.83;;
5904;SDS011;2978;42.012;24.880;2023-02-22T00:58:06;3.67;;;2.20;;
5904;SDS011;2978;42.012;24.880;2023-02-22T01:00:33;7.03;;;2.47;;
5904;SDS011;2978;42.012;24.880;2023-02-22T01:03:06;2.50;;;1.93;;
5904;SDS011;2978;42.012;24.880;2023-02-22T01:05:34;4.63;;;1.83;;
5904;SDS011;2978;42.012;24.880;2023-02-22T01:08:02;1.80;;;1.50;;
5904;SDS011;2978;42.012;24.880;2023-02-22T01:10:30;2.30;;;1.63;;
5904;SDS011;2978;42.012;24.880;2023-02-22T01:12:56;4.50;;;2.33;;
5904;SDS011;2978;42.012;24.880;2023-02-22T01:15:22;9.77;;;3.17;;
5904;SDS011;2978;42.012;24.880;2023-02-22T01:17:51;3.30;;;2.37;;
5904;SDS011;2978;42.012;24.880;2023-02-22T01:20:18;7.80;;;2.40;;
5904;SDS011;2978;42.012;24.880;2023-02-22T01:22:45;3.43;;;2.03;;
5904;SDS011;2978;42.012;24.880;2023-02-22T01:25:14;3.73;;;2.20;;
5904;SDS011;2978;42.012;24.880;2023-02-22T01:27:41;2.30;;;2.00;;
5904;SDS011;2978;42.012;24.880;2023-02-22T01:30:07;3.70;;;2.20;;
5904;SDS011;2978;42.012;24.880;2023-02-22T01:32:36;7.67;;;2.10;;
5904;SDS011;2978;42.012;24.880;2023-02-22T01:35:05;2.93;;;1.80;;
5904;SDS011;2978;42.012;24.880;2023-02-22T01:37:32;3.50;;;2.30;;
5904;SDS011;2978;42.012;24.880;2023-02-22T01:39:59;3.40;;;1.90;;
5904;SDS011;2978;42.012;24.880;2023-02-22T01:42:24;3.37;;;2.20;;
5904;SDS011;2978;42.012;24.880;2023-02-22T01:47:53;3.87;;;2.37;;
5904;SDS011;2978;42.012;24.880;2023-02-22T01:50:20;3.73;;;2.60;;
5904;SDS011;2978;42.012;24.880;2023-02-22T01:52:46;2.97;;;2.00;;
5904;SDS011;2978;42.012;24.880;2023-02-22T01:55:12;4.00;;;2.10;;
5904;SDS011;2978;42.012;24.880;2023-02-22T01:57:39;3.90;;;2.70;;
5904;SDS011;2978;42.012;24.880;2023-02-22T02:00:09;3.47;;;1.97;;
5904;SDS011;2978;42.012;24.880;2023-02-22T02:02:40;2.80;;;1.80;;
5904;SDS011;2978;42.012;24.880;2023-02-22T02:05:08;3.03;;;2.10;;
5904;SDS011;2978;42.012;24.880;2023-02-22T02:07:34;3.30;;;2.07;;
5904;SDS011;2978;42.012;24.880;2023-02-22T02:10:05;6.93;;;2.33;;
5904;SDS011;2978;42.012;24.880;2023-02-22T02:12:39;2.90;;;1.90;;
5904;SDS011;2978;42.012;24.880;2023-02-22T02:17:50;4.30;;;2.23;;
5904;SDS011;2978;42.012;24.880;2023-02-22T02:20:26;6.33;;;2.60;;
5904;SDS011;2978;42.012;24.880;2023-02-22T02:34:50;3.90;;;2.17;;
5904;SDS011;2978;42.012;24.880;2023-02-22T02:37:36;3.83;;;1.97;;
5904;SDS011;2978;42.012;24.880;2023-02-22T02:42:49;2.67;;;2.13;;
5904;SDS011;2978;42.012;24.880;2023-02-22T02:45:24;19.10;;;2.50;;
5904;SDS011;2978;42.012;24.880;2023-02-22T02:47:57;8.83;;;2.40;;
5904;SDS011;2978;42.012;24.880;2023-02-22T02:50:45;3.93;;;2.30;;
5904;SDS011;2978;42.012;24.880;2023-02-22T02:53:13;5.97;;;3.10;;
5904;SDS011;2978;42.012;24.880;2023-02-22T02:55:42;3.57;;;2.43;;
5904;SDS011;2978;42.012;24.880;2023-02-22T02:58:09;2.53;;;2.00;;
5904;SDS011;2978;42.012;24.880;2023-02-22T03:00:44;4.37;;;2.30;;
5904;SDS011;2978;42.012;24.880;2023-02-22T03:03:45;6.80;;;2.20;;
5904;SDS011;2978;42.012;24.880;2023-02-22T03:17:33;3.53;;;2.50;;
5904;SDS011;2978;42.012;24.880;2023-02-22T03:20:14;10.93;;;6.40;;
5904;SDS011;2978;42.012;24.880;2023-02-22T03:22:54;18.17;;;8.40;;
5904;SDS011;2978;42.012;24.880;2023-02-22T03:25:38;70.07;;;13.40;;
5904;SDS011;2978;42.012;24.880;2023-02-22T03:28:11;22.23;;;12.07;;
5904;SDS011;2978;42.012;24.880;2023-02-22T03:30:41;19.73;;;12.40;;
5904;SDS011;2978;42.012;24.880;2023-02-22T03:33:22;34.00;;;12.90;;
5904;SDS011;2978;42.012;24.880;2023-02-22T03:35:59;16.60;;;8.90;;
5904;SDS011;2978;42.012;24.880;2023-02-22T03:38:31;19.37;;;9.97;;
5904;SDS011;2978;42.012;24.880;2023-02-22T03:41:00;13.53;;;5.50;;
5904;SDS011;2978;42.012;24.880;2023-02-22T03:43:29;45.00;;;6.23;;
5904;SDS011;2978;42.012;24.880;2023-02-22T03:45:58;6.97;;;5.30;;
5904;SDS011;2978;42.012;24.880;2023-02-22T03:48:35;5.80;;;4.33;;
5904;SDS011;2978;42.012;24.880;2023-02-22T03:51:34;9.07;;;4.50;;
5904;SDS011;2978;42.012;24.880;2023-02-22T03:54:01;8.13;;;3.70;;
5904;SDS011;2978;42.012;24.880;2023-02-22T03:56:29;3.90;;;2.80;;
5904;SDS011;2978;42.012;24.880;2023-02-22T03:59:00;4.00;;;3.40;;
5904;SDS011;2978;42.012;24.880;2023-02-22T04:01:28;8.43;;;3.60;;
5904;SDS011;2978;42.012;24.880;2023-02-22T04:03:53;5.73;;;3.23;;
5904;SDS011;2978;42.012;24.880;2023-02-22T04:06:19;7.07;;;3.60;;
5904;SDS011;2978;42.012;24.880;2023-02-22T04:08:44;7.83;;;3.40;;
5904;SDS011;2978;42.012;24.880;2023-02-22T04:11:09;7.20;;;3.50;;
5904;SDS011;2978;42.012;24.880;2023-02-22T04:13:35;5.00;;;3.00;;
5904;SDS011;2978;42.012;24.880;2023-02-22T04:16:00;6.03;;;3.33;;
5904;SDS011;2978;42.012;24.880;2023-02-22T04:18:26;4.77;;;2.87;;
5904;SDS011;2978;42.012;24.880;2023-02-22T04:20:51;5.17;;;3.10;;
5904;SDS011;2978;42.012;24.880;2023-02-22T04:23:17;3.60;;;2.67;;
5904;SDS011;2978;42.012;24.880;2023-02-22T04:25:42;3.47;;;2.47;;
5904;SDS011;2978;42.012;24.880;2023-02-22T04:28:08;6.43;;;2.73;;
5904;SDS011;2978;42.012;24.880;2023-02-22T04:30:34;6.40;;;2.90;;
5904;SDS011;2978;42.012;24.880;2023-02-22T04:32:59;4.77;;;2.93;;
5904;SDS011;2978;42.012;24.880;2023-02-22T04:35:24;3.80;;;2.63;;
5904;SDS011;2978;42.012;24.880;2023-02-22T04:37:50;11.17;;;3.13;;
5904;SDS011;2978;42.012;24.880;2023-02-22T04:40:15;13.10;;;3.43;;
5904;SDS011;2978;42.012;24.880;2023-02-22T04:42:41;4.43;;;2.60;;
5904;SDS011;2978;42.012;24.880;2023-02-22T04:45:07;6.53;;;2.63;;
5904;SDS011;2978;42.012;24.880;2023-02-22T04:47:34;9.57;;;2.80;;
5904;SDS011;2978;42.012;24.880;2023-02-22T04:50:00;8.13;;;3.33;;
5904;SDS011;2978;42.012;24.880;2023-02-22T04:52:26;6.47;;;2.67;;
5904;SDS011;2978;42.012;24.880;2023-02-22T04:54:55;3.63;;;2.80;;
5904;SDS011;2978;42.012;24.880;2023-02-22T04:57:20;5.93;;;2.83;;
5904;SDS011;2978;42.012;24.880;2023-02-22T04:59:46;3.87;;;2.53;;
5904;SDS011;2978;42.012;24.880;2023-02-22T05:02:12;7.83;;;3.00;;
5904;SDS011;2978;42.012;24.880;2023-02-22T05:04:37;8.93;;;3.07;;
5904;SDS011;2978;42.012;24.880;2023-02-22T05:07:03;5.97;;;2.80;;
5904;SDS011;2978;42.012;24.880;2023-02-22T05:09:29;5.40;;;2.90;;
5904;SDS011;2978;42.012;24.880;2023-02-22T05:11:54;4.27;;;2.50;;
5904;SDS011;2978;42.012;24.880;2023-02-22T05:14:20;4.47;;;2.60;;
5904;SDS011;2978;42.012;24.880;2023-02-22T05:16:47;5.37;;;2.53;;
5904;SDS011;2978;42.012;24.880;2023-02-22T05:19:13;6.37;;;2.20;;
5904;SDS011;2978;42.012;24.880;2023-02-22T05:21:39;5.23;;;2.70;;
5904;SDS011;2978;42.012;24.880;2023-02-22T05:24:05;6.47;;;2.20;;
5904;SDS011;2978;42.012;24.880;2023-02-22T05:26:31;5.80;;;3.00;;
5904;SDS011;2978;42.012;24.880;2023-02-22T05:28:56;9.07;;;2.43;;
5904;SDS011;2978;42.012;24.880;2023-02-22T05:31:21;4.23;;;2.30;;
5904;SDS011;2978;42.012;24.880;2023-02-22T05:33:47;8.43;;;2.87;;
5904;SDS011;2978;42.012;24.880;2023-02-22T05:36:12;3.10;;;2.10;;
5904;SDS011;2978;42.012;24.880;2023-02-22T05:38:38;8.57;;;2.23;;
5904;SDS011;2978;42.012;24.880;2023-02-22T05:41:07;6.20;;;2.50;;
5904;SDS011;2978;42.012;24.880;2023-02-22T05:43:33;5.73;;;3.33;;
5904;SDS011;2978;42.012;24.880;2023-02-22T05:45:59;6.13;;;2.60;;
5904;SDS011;2978;42.012;24.880;2023-02-22T05:48:24;5.50;;;2.60;;
5904;SDS011;2978;42.012;24.880;2023-02-22T05:50:50;8.87;;;2.67;;
5904;SDS011;2978;42.012;24.880;2023-02-22T05:53:15;26.67;;;3.13;;
5904;SDS011;2978;42.012;24.880;2023-02-22T05:55:41;8.33;;;2.57;;
5904;SDS011;2978;42.012;24.880;2023-02-22T05:58:06;15.63;;;2.57;;
5904;SDS011;2978;42.012;24.880;2023-02-22T06:00:32;5.90;;;2.27;;
5904;SDS011;2978;42.012;24.880;2023-02-22T06:02:59;5.00;;;2.40;;
5904;SDS011;2978;42.012;24.880;2023-02-22T06:05:30;7.70;;;2.60;;
5904;SDS011;2978;42.012;24.880;2023-02-22T06:07:56;2.70;;;2.40;;
5904;SDS011;2978;42.012;24.880;2023-02-22T06:10:23;5.30;;;1.90;;
5904;SDS011;2978;42.012;24.880;2023-02-22T06:12:49;29.63;;;3.03;;
5904;SDS011;2978;42.012;24.880;2023-02-22T06:15:15;7.40;;;2.73;;
5904;SDS011;2978;42.012;24.880;2023-02-22T06:17:41;9.70;;;2.80;;
5904;SDS011;2978;42.012;24.880;2023-02-22T06:20:11;10.60;;;2.80;;
5904;SDS011;2978;42.012;24.880;2023-02-22T06:22:38;5.00;;;1.90;;
5904;SDS011;2978;42.012;24.880;2023-02-22T06:25:05;8.33;;;2.33;;
5904;SDS011;2978;42.012;24.880;2023-02-22T06:27:32;7.83;;;2.63;;
5904;SDS011;2978;42.012;24.880;2023-02-22T06:29:58;4.60;;;2.63;;
5904;SDS011;2978;42.012;24.880;2023-02-22T06:32:24;6.63;;;2.37;;
5904;SDS011;2978;42.012;24.880;2023-02-22T06:34:50;2.80;;;2.37;;
5904;SDS011;2978;42.012;24.880;2023-02-22T06:37:15;4.13;;;2.73;;
5904;SDS011;2978;42.012;24.880;2023-02-22T06:39:40;14.97;;;4.07;;
5904;SDS011;2978;42.012;24.880;2023-02-22T06:42:06;2.83;;;2.00;;
5904;SDS011;2978;42.012;24.880;2023-02-22T06:44:31;5.10;;;2.53;;
5904;SDS011;2978;42.012;24.880;2023-02-22T06:46:57;8.03;;;2.60;;
5904;SDS011;2978;42.012;24.880;2023-02-22T06:49:24;15.70;;;5.80;;
5904;SDS011;2978;42.012;24.880;2023-02-22T06:51:53;5.07;;;2.07;;
5904;SDS011;2978;42.012;24.880;2023-02-22T06:54:38;2.83;;;2.37;;
5904;SDS011;2978;42.012;24.880;2023-02-22T06:57:04;4.47;;;2.40;;
5904;SDS011;2978;42.012;24.880;2023-02-22T07:02:41;4.03;;;2.37;;
5904;SDS011;2978;42.012;24.880;2023-02-22T07:05:08;10.17;;;3.80;;
5904;SDS011;2978;42.012;24.880;2023-02-22T07:07:34;5.43;;;2.17;;
5904;SDS011;2978;42.012;24.880;2023-02-22T07:10:00;3.00;;;2.07;;
5904;SDS011;2978;42.012;24.880;2023-02-22T07:12:26;6.17;;;2.13;;
5904;SDS011;2978;42.012;24.880;2023-02-22T07:14:53;3.10;;;2.23;;
5904;SDS011;2978;42.012;24.880;2023-02-22T07:17:20;2.77;;;2.37;;
5904;SDS011;2978;42.012;24.880;2023-02-22T07:19:45;3.83;;;2.90;;
5904;SDS011;2978;42.012;24.880;2023-02-22T07:22:10;9.33;;;2.83;;
5904;SDS011;2978;42.012;24.880;2023-02-22T07:24:36;6.30;;;2.77;;
5904;SDS011;2978;42.012;24.880;2023-02-22T07:27:01;4.47;;;2.73;;
5904;SDS011;2978;42.012;24.880;2023-02-22T07:29:27;5.80;;;2.97;;
5904;SDS011;2978;42.012;24.880;2023-02-22T07:31:52;4.27;;;2.37;;
5904;SDS011;2978;42.012;24.880;2023-02-22T07:34:17;6.33;;;2.70;;
5904;SDS011;2978;42.012;24.880;2023-02-22T07:36:44;4.90;;;3.10;;
5904;SDS011;2978;42.012;24.880;2023-02-22T07:39:09;5.37;;;3.00;;
5904;SDS011;2978;42.012;24.880;2023-02-22T07:41:35;8.53;;;3.47;;
5904;SDS011;2978;42.012;24.880;2023-02-22T07:44:00;5.63;;;3.50;;
5904;SDS011;2978;42.012;24.880;2023-02-22T07:46:26;4.30;;;2.93;;
5904;SDS011;2978;42.012;24.880;2023-02-22T07:48:51;7.00;;;2.90;;
5904;SDS011;2978;42.012;24.880;2023-02-22T07:51:17;5.10;;;4.03;;
5904;SDS011;2978;42.012;24.880;2023-02-22T07:53:44;5.37;;;3.70;;
5904;SDS011;2978;42.012;24.880;2023-02-22T07:56:10;7.90;;;3.03;;
5904;SDS011;2978;42.012;24.880;2023-02-22T07:58:36;7.57;;;2.40;;
5904;SDS011;2978;42.012;24.880;2023-02-22T08:01:02;5.70;;;2.43;;
5904;SDS011;2978;42.012;24.880;2023-02-22T08:03:29;5.10;;;3.30;;
5904;SDS011;2978;42.012;24.880;2023-02-22T08:06:02;13.90;;;5.33;;
5904;SDS011;2978;42.012;24.880;2023-02-22T08:08:29;9.33;;;4.50;;
5904;SDS011;2978;42.012;24.880;2023-02-22T08:10:55;11.40;;;4.87;;
5904;SDS011;2978;42.012;24.880;2023-02-22T08:13:21;5.30;;;3.33;;
5904;SDS011;2978;42.012;24.880;2023-02-22T08:15:49;9.63;;;3.40;;
5904;SDS011;2978;42.012;24.880;2023-02-22T08:18:17;6.50;;;3.53;;
5904;SDS011;2978;42.012;24.880;2023-02-22T08:20:45;4.87;;;2.70;;
5904;SDS011;2978;42.012;24.880;2023-02-22T08:23:13;9.90;;;3.60;;
5904;SDS011;2978;42.012;24.880;2023-02-22T08:25:40;8.70;;;4.60;;
5904;SDS011;2978;42.012;24.880;2023-02-22T08:28:10;6.70;;;2.60;;
5904;SDS011;2978;42.012;24.880;2023-02-22T08:30:39;4.07;;;3.20;;
5904;SDS011;2978;42.012;24.880;2023-02-22T08:33:07;11.10;;;2.70;;
5904;SDS011;2978;42.012;24.880;2023-02-22T08:35:34;6.20;;;3.37;;
5904;SDS011;2978;42.012;24.880;2023-02-22T08:38:03;18.67;;;6.13;;
5904;SDS011;2978;42.012;24.880;2023-02-22T08:40:31;8.70;;;3.80;;
5904;SDS011;2978;42.012;24.880;2023-02-22T08:42:59;14.10;;;4.47;;
5904;SDS011;2978;42.012;24.880;2023-02-22T08:45:25;14.20;;;3.83;;
5904;SDS011;2978;42.012;24.880;2023-02-22T08:47:51;14.70;;;3.37;;
5904;SDS011;2978;42.012;24.880;2023-02-22T08:50:23;16.63;;;4.73;;
5904;SDS011;2978;42.012;24.880;2023-02-22T08:52:54;9.13;;;4.03;;
5904;SDS011;2978;42.012;24.880;2023-02-22T08:55:23;11.87;;;4.23;;
5904;SDS011;2978;42.012;24.880;2023-02-22T08:57:50;10.37;;;3.73;;
5904;SDS011;2978;42.012;24.880;2023-02-22T09:00:19;6.37;;;2.80;;
5904;SDS011;2978;42.012;24.880;2023-02-22T09:02:48;6.00;;;2.33;;
5904;SDS011;2978;42.012;24.880;2023-02-22T09:05:14;10.27;;;3.00;;
5904;SDS011;2978;42.012;24.880;2023-02-22T09:07:41;7.70;;;3.47;;
5904;SDS011;2978;42.012;24.880;2023-02-22T09:10:09;10.50;;;2.10;;
5904;SDS011;2978;42.012;24.880;2023-02-22T09:12:39;3.50;;;1.93;;
5904;SDS011;2978;42.012;24.880;2023-02-22T09:15:05;10.03;;;4.10;;
5904;SDS011;2978;42.012;24.880;2023-02-22T09:17:31;6.27;;;2.70;;
5904;SDS011;2978;42.012;24.880;2023-02-22T09:19:56;3.47;;;1.87;;
5904;SDS011;2978;42.012;24.880;2023-02-22T09:22:22;5.33;;;2.10;;
5904;SDS011;2978;42.012;24.880;2023-02-22T09:24:48;3.37;;;2.07;;
5904;SDS011;2978;42.012;24.880;2023-02-22T09:27:16;8.40;;;1.70;;
5904;SDS011;2978;42.012;24.880;2023-02-22T09:29:46;3.33;;;2.10;;
5904;SDS011;2978;42.012;24.880;2023-02-22T09:32:12;6.90;;;1.93;;
5904;SDS011;2978;42.012;24.880;2023-02-22T09:34:38;2.80;;;1.80;;
5904;SDS011;2978;42.012;24.880;2023-02-22T09:37:09;2.03;;;1.47;;
5904;SDS011;2978;42.012;24.880;2023-02-22T09:39:35;1.70;;;1.57;;
5904;SDS011;2978;42.012;24.880;2023-02-22T09:47:13;3.10;;;1.73;;
5904;SDS011;2978;42.012;24.880;2023-02-22T09:52:30;2.83;;;1.40;;
5904;SDS011;2978;42.012;24.880;2023-02-22T09:55:08;2.50;;;1.50;;
5904;SDS011;2978;42.012;24.880;2023-02-22T09:57:49;6.43;;;2.13;;
5904;SDS011;2978;42.012;24.880;2023-02-22T10:00:40;6.70;;;1.60;;
5904;SDS011;2978;42.012;24.880;2023-02-22T10:06:05;7.30;;;1.47;;
5904;SDS011;2978;42.012;24.880;2023-02-22T10:08:35;1.77;;;1.23;;
5904;SDS011;2978;42.012;24.880;2023-02-22T10:11:12;3.03;;;1.60;;
5904;SDS011;2978;42.012;24.880;2023-02-22T10:16:52;2.47;;;1.60;;
5904;SDS011;2978;42.012;24.880;2023-02-22T10:30:18;4.60;;;1.50;;
5904;SDS011;2978;42.012;24.880;2023-02-22T10:32:58;1.60;;;1.23;;
5904;SDS011;2978;42.012;24.880;2023-02-22T10:35:35;3.43;;;1.23;;
5904;SDS011;2978;42.012;24.880;2023-02-22T10:38:10;6.67;;;1.63;;
5904;SDS011;2978;42.012;24.880;2023-02-22T10:40:37;1.67;;;1.30;;
5904;SDS011;2978;42.012;24.880;2023-02-22T10:43:04;2.20;;;1.60;;
5904;SDS011;2978;42.012;24.880;2023-02-22T10:45:32;2.03;;;1.40;;
5904;SDS011;2978;42.012;24.880;2023-02-22T10:48:03;4.20;;;1.40;;
5904;SDS011;2978;42.012;24.880;2023-02-22T10:50:51;2.60;;;1.90;;
5904;SDS011;2978;42.012;24.880;2023-02-22T10:53:29;2.80;;;1.80;;
5904;SDS011;2978;42.012;24.880;2023-02-22T10:56:15;1.97;;;1.37;;
5904;SDS011;2978;42.012;24.880;2023-02-22T10:58:49;2.67;;;1.57;;
5904;SDS011;2978;42.012;24.880;2023-02-22T11:01:24;4.33;;;1.47;;
5904;SDS011;2978;42.012;24.880;2023-02-22T11:04:00;2.87;;;1.50;;
5904;SDS011;2978;42.012;24.880;2023-02-22T11:06:33;4.10;;;1.97;;
5904;SDS011;2978;42.012;24.880;2023-02-22T11:09:18;2.80;;;1.80;;
5904;SDS011;2978;42.012;24.880;2023-02-22T11:11:48;3.13;;;1.70;;
5904;SDS011;2978;42.012;24.880;2023-02-22T11:14:30;2.90;;;2.10;;
5904;SDS011;2978;42.012;24.880;2023-02-22T11:16:56;3.23;;;1.70;;
5904;SDS011;2978;42.012;24.880;2023-02-22T11:19:25;8.13;;;1.67;;
5904;SDS011;2978;42.012;24.880;2023-02-22T11:21:52;2.53;;;1.47;;
5904;SDS011;2978;42.012;24.880;2023-02-22T11:24:43;2.33;;;1.50;;
5904;SDS011;2978;42.012;24.880;2023-02-22T11:27:19;5.13;;;1.43;;
5904;SDS011;2978;42.012;24.880;2023-02-22T11:29:50;3.43;;;1.30;;
5904;SDS011;2978;42.012;24.880;2023-02-22T11:32:17;14.93;;;1.70;;
5904;SDS011;2978;42.012;24.880;2023-02-22T11:34:46;8.37;;;1.43;;
5904;SDS011;2978;42.012;24.880;2023-02-22T11:37:32;8.50;;;2.10;;
5904;SDS011;2978;42.012;24.880;2023-02-22T11:42:37;2.50;;;1.50;;
5904;SDS011;2978;42.012;24.880;2023-02-22T11:45:06;3.77;;;1.53;;
5904;SDS011;2978;42.012;24.880;2023-02-22T11:47:54;7.53;;;2.20;;
5904;SDS011;2978;42.012;24.880;2023-02-22T11:50:23;7.70;;;2.30;;
5904;SDS011;2978;42.012;24.880;2023-02-22T12:01:22;3.13;;;2.10;;
5904;SDS011;2978;42.012;24.880;2023-02-22T12:12:17;11.10;;;7.33;;
5904;SDS011;2978;42.012;24.880;2023-02-22T12:23:02;2.33;;;1.87;;
5904;SDS011;2978;42.012;24.880;2023-02-22T12:25:58;16.43;;;9.80;;
5904;SDS011;2978;42.012;24.880;2023-02-22T12:28:32;28.10;;;17.57;;
5904;SDS011;2978;42.012;24.880;2023-02-22T12:31:02;41.87;;;23.47;;
5904;SDS011;2978;42.012;24.880;2023-02-22T12:33:52;8.27;;;4.90;;
5904;SDS011;2978;42.012;24.880;2023-02-22T12:36:19;7.17;;;4.40;;
5904;SDS011;2978;42.012;24.880;2023-02-22T12:38:51;8.20;;;5.87;;
5904;SDS011;2978;42.012;24.880;2023-02-22T12:41:33;20.03;;;8.40;;
5904;SDS011;2978;42.012;24.880;2023-02-22T12:44:16;11.03;;;4.90;;
5904;SDS011;2978;42.012;24.880;2023-02-22T12:46:50;2.17;;;1.60;;
5904;SDS011;2978;42.012;24.880;2023-02-22T12:57:46;6.60;;;1.97;;
5904;SDS011;2978;42.012;24.880;2023-02-22T13:03:41;3.60;;;1.97;;
5904;SDS011;2978;42.012;24.880;2023-02-22T13:20:22;2.80;;;1.87;;
5904;SDS011;2978;42.012;24.880;2023-02-22T13:22:51;2.60;;;1.83;;
5904;SDS011;2978;42.012;24.880;2023-02-22T13:25:34;3.20;;;2.23;;
5904;SDS011;2978;42.012;24.880;2023-02-22T13:34:05;3.63;;;2.50;;
5904;SDS011;2978;42.012;24.880;2023-02-22T13:39:34;3.33;;;1.83;;
5904;SDS011;2978;42.012;24.880;2023-02-22T13:48:05;7.13;;;2.27;;
5904;SDS011;2978;42.012;24.880;2023-02-22T13:51:04;11.60;;;2.33;;
5904;SDS011;2978;42.012;24.880;2023-02-22T13:53:53;3.00;;;2.03;;
5904;SDS011;2978;42.012;24.880;2023-02-22T13:56:26;4.00;;;2.20;;
5904;SDS011;2978;42.012;24.880;2023-02-22T13:58:53;3.33;;;1.93;;
5904;SDS011;2978;42.012;24.880;2023-02-22T14:06:51;5.10;;;2.43;;
5904;SDS011;2978;42.012;24.880;2023-02-22T14:12:25;5.27;;;2.73;;
5904;SDS011;2978;42.012;24.880;2023-02-22T14:17:35;3.97;;;2.13;;
5904;SDS011;2978;42.012;24.880;2023-02-22T14:20:16;3.70;;;2.30;;
5904;SDS011;2978;42.012;24.880;2023-02-22T14:22:54;3.90;;;2.93;;
5904;SDS011;2978;42.012;24.880;2023-02-22T14:27:58;6.90;;;3.20;;
5904;SDS011;2978;42.012;24.880;2023-02-22T14:30:35;5.20;;;2.80;;
5904;SDS011;2978;42.012;24.880;2023-02-22T14:33:03;5.43;;;4.07;;
5904;SDS011;2978;42.012;24.880;2023-02-22T14:36:06;6.13;;;3.80;;
5904;SDS011;2978;42.012;24.880;2023-02-22T14:38:32;5.40;;;2.80;;
5904;SDS011;2978;42.012;24.880;2023-02-22T14:40:58;6.23;;;2.33;;
5904;SDS011;2978;42.012;24.880;2023-02-22T14:43:26;4.83;;;2.40;;
5904;SDS011;2978;42.012;24.880;2023-02-22T14:45:53;5.67;;;2.87;;
5904;SDS011;2978;42.012;24.880;2023-02-22T14:48:25;4.93;;;2.50;;
5904;SDS011;2978;42.012;24.880;2023-02-22T14:51:01;5.30;;;2.73;;
5904;SDS011;2978;42.012;24.880;2023-02-22T14:56:13;7.23;;;2.60;;
5904;SDS011;2978;42.012;24.880;2023-02-22T14:58:43;4.03;;;2.60;;
5904;SDS011;2978;42.012;24.880;2023-02-22T15:03:54;10.73;;;3.60;;
5904;SDS011;2978;42.012;24.880;2023-02-22T15:06:24;12.90;;;4.37;;
5904;SDS011;2978;42.012;24.880;2023-02-22T15:11:39;15.97;;;5.30;;
5904;SDS011;2978;42.012;24.880;2023-02-22T15:14:14;14.50;;;7.50;;
5904;SDS011;2978;42.012;24.880;2023-02-22T15:16:45;26.27;;;14.33;;
5904;SDS011;2978;42.012;24.880;2023-02-22T15:19:19;24.50;;;13.17;;
5904;SDS011;2978;42.012;24.880;2023-02-22T15:21:53;26.20;;;12.40;;
5904;SDS011;2978;42.012;24.880;2023-02-22T15:24:25;14.20;;;8.70;;
5904;SDS011;2978;42.012;24.880;2023-02-22T15:26:53;18.63;;;6.63;;
5904;SDS011;2978;42.012;24.880;2023-02-22T15:31:48;10.83;;;4.90;;
5904;SDS011;2978;42.012;24.880;2023-02-22T15:36:42;12.93;;;5.13;;
5904;SDS011;2978;42.012;24.880;2023-02-22T15:42:04;11.00;;;4.70;;
5904;SDS011;2978;42.012;24.880;2023-02-22T15:44:38;8.00;;;4.57;;
5904;SDS011;2978;42.012;24.880;2023-02-22T15:47:06;6.83;;;4.40;;
5904;SDS011;2978;42.012;24.880;2023-02-22T15:49:39;10.00;;;5.67;;
5904;SDS011;2978;42.012;24.880;2023-02-22T15:52:06;7.90;;;3.57;;
5904;SDS011;2978;42.012;24.880;2023-02-22T15:54:43;9.83;;;3.80;;
5904;SDS011;2978;42.012;24.880;2023-02-22T15:57:18;7.03;;;4.07;;
5904;SDS011;2978;42.012;24.880;2023-02-22T15:59:50;5.20;;;3.27;;
5904;SDS011;2978;42.012;24.880;2023-02-22T16:04:59;8.43;;;2.93;;
5904;SDS011;2978;42.012;24.880;2023-02-22T16:07:41;10.70;;;3.13;;
5904;SDS011;2978;42.012;24.880;2023-02-22T16:10:20;5.07;;;3.73;;
5904;SDS011;2978;42.012;24.880;2023-02-22T16:12:48;5.77;;;3.47;;
5904;SDS011;2978;42.012;24.880;2023-02-22T16:15:15;11.00;;;4.10;;
5904;SDS011;2978;42.012;24.880;2023-02-22T16:17:42;9.20;;;4.43;;
5904;SDS011;2978;42.012;24.880;2023-02-22T16:22:37;8.03;;;4.60;;
5904;SDS011;2978;42.012;24.880;2023-02-22T16:25:37;8.43;;;4.87;;
5904;SDS011;2978;42.012;24.880;2023-02-22T16:28:23;10.43;;;5.00;;
5904;SDS011;2978;42.012;24.880;2023-02-22T16:30:58;9.30;;;5.30;;
5904;SDS011;2978;42.012;24.880;2023-02-22T16:33:24;12.63;;;6.17;;
5904;SDS011;2978;42.012;24.880;2023-02-22T16:35:53;5.90;;;4.37;;
5904;SDS011;2978;42.012;24.880;2023-02-22T16:38:21;8.27;;;4.23;;
5904;SDS011;2978;42.012;24.880;2023-02-22T16:40:48;12.07;;;5.53;;
5904;SDS011;2978;42.012;24.880;2023-02-22T16:43:22;8.73;;;3.83;;
5904;SDS011;2978;42.012;24.880;2023-02-22T16:45:52;8.70;;;3.33;;
5904;SDS011;2978;42.012;24.880;2023-02-22T16:48:21;8.23;;;4.73;;
5904;SDS011;2978;42.012;24.880;2023-02-22T16:50:49;11.93;;;5.60;;
5904;SDS011;2978;42.012;24.880;2023-02-22T16:53:16;12.97;;;6.97;;
5904;SDS011;2978;42.012;24.880;2023-02-22T16:55:44;7.40;;;4.80;;
5904;SDS011;2978;42.012;24.880;2023-02-22T16:58:11;6.57;;;3.77;;
5904;SDS011;2978;42.012;24.880;2023-02-22T17:00:38;4.67;;;3.30;;
5904;SDS011;2978;42.012;24.880;2023-02-22T17:03:06;8.70;;;3.80;;
5904;SDS011;2978;42.012;24.880;2023-02-22T17:05:37;9.33;;;4.80;;
5904;SDS011;2978;42.012;24.880;2023-02-22T17:08:03;11.40;;;4.40;;
5904;SDS011;2978;42.012;24.880;2023-02-22T17:10:29;4.20;;;3.33;;
5904;SDS011;2978;42.012;24.880;2023-02-22T17:12:55;5.50;;;2.40;;
5904;SDS011;2978;42.012;24.880;2023-02-22T17:15:23;3.93;;;2.83;;
5904;SDS011;2978;42.012;24.880;2023-02-22T17:17:51;7.53;;;3.00;;
5904;SDS011;2978;42.012;24.880;2023-02-22T17:20:17;15.03;;;2.50;;
5904;SDS011;2978;42.012;24.880;2023-02-22T17:22:54;5.63;;;2.97;;
5904;SDS011;2978;42.012;24.880;2023-02-22T17:25:24;4.13;;;2.90;;
5904;SDS011;2978;42.012;24.880;2023-02-22T17:27:52;7.27;;;2.57;;
5904;SDS011;2978;42.012;24.880;2023-02-22T17:30:17;4.17;;;2.63;;
5904;SDS011;2978;42.012;24.880;2023-02-22T17:32:45;6.57;;;3.30;;
5904;SDS011;2978;42.012;24.880;2023-02-22T17:35:14;3.73;;;2.40;;
5904;SDS011;2978;42.012;24.880;2023-02-22T17:37:44;10.93;;;2.60;;
5904;SDS011;2978;42.012;24.880;2023-02-22T17:40:10;10.63;;;2.60;;
5904;SDS011;2978;42.012;24.880;2023-02-22T17:42:38;8.67;;;2.20;;
5904;SDS011;2978;42.012;24.880;2023-02-22T17:45:04;3.37;;;2.07;;
5904;SDS011;2978;42.012;24.880;2023-02-22T17:47:30;3.07;;;2.40;;
5904;SDS011;2978;42.012;24.880;2023-02-22T17:49:57;9.43;;;2.60;;
5904;SDS011;2978;42.012;24.880;2023-02-22T17:52:22;5.03;;;2.90;;
5904;SDS011;2978;42.012;24.880;2023-02-22T17:54:48;11.53;;;3.03;;
5904;SDS011;2978;42.012;24.880;2023-02-22T17:57:14;6.10;;;2.90;;